Latest Coastal Weather Observations for Ulladulla

IDN60701

Issued at 11:41 pm EST Sunday 1 May 2016 (issued every 10 minutes, with the page automatically refreshed every 10 minutes)

About coastal observations | Map of coastal stations | Coastal observations for NSW | Marine services | Other Formats
Station Details ID: 069138 Name: ULLADULLA AWS Lat: -35.36 Lon: 150.48 Height: 35.7 m
Data from the previous 72 hours. | See also: Recent months at Ulladulla
Date/Time
EST
Temp

°C
Wind Pressure Rain
since 9am
mm
Weather Cloud Vis
km
Sea
Height
m
Swell
Dir
 
Speed
knots
Gust
knots
hPa Trend Height
m
Period
s
Dir
01/11:30pm 15.6 NW 8 14 1014.6 - 0.0 - - - - - - -
01/11:00pm 15.9 NW 10 14 1014.5 - 0.0 - - - - - - -
01/10:30pm 15.9 NW 7 10 1014.8 - 0.0 - - - - - - -
01/10:00pm 16.0 NW 5 7 1014.9 - 0.0 - - - - - - -
01/09:30pm 16.6 NW 6 10 1014.7 - 0.0 - - - - - - -
01/09:00pm 17.3 NW 6 11 1014.5 - 0.0 - - - - - - -
01/08:30pm 17.2 NW 8 11 1013.8 - 0.0 - - - - - - -
01/08:00pm 17.8 W 5 10 1013.7 - 0.0 - - - - - - -
01/07:30pm 18.6 NW 10 19 1013.1 - 0.0 - - - - - - -
01/07:00pm 18.5 W 5 10 1012.7 - 0.0 - - - - - - -
01/06:30pm 18.8 WNW 5 7 1012.2 - 0.0 - - - - - - -
01/06:00pm 19.4 NW 4 7 1011.6 - 0.0 - - - - - - -
01/05:30pm 20.4 WNW 7 14 1010.6 - 0.0 - - - - - - -
01/05:00pm 21.5 WNW 12 22 1009.6 - 0.0 - - - - - - -
01/04:30pm 22.6 WNW 9 17 1008.8 - 0.0 - - - - - - -
01/04:00pm 23.7 W 8 17 1008.0 - 0.0 - - - - - - -
01/03:30pm 24.6 NW 13 23 1007.5 - 0.0 - - - - - - -
01/03:09pm 24.9 WNW 14 31 1007.1 - 0.0 - - - - - - -
01/03:08pm 24.8 WNW 13 31 1007.1 - 0.0 - - - - - - -
01/03:00pm 25.1 NW 8 15 1007.2 - 0.0 - - - - - - -
01/02:30pm 25.5 NW 9 20 1006.9 - 0.0 - - - - - - -
01/02:00pm 25.7 WNW 12 22 1006.8 - 0.0 - - - - - - -
01/01:42pm 25.8 NW 15 33 1006.6 - 0.0 - - - - - - -
01/01:30pm 26.0 NW 11 19 1006.7 - 0.0 - - - - - - -
01/01:01pm 26.6 NW 15 26 1007.0 - 0.0 - - - - - - -
01/01:00pm 26.4 NW 16 26 1007.0 - 0.0 - - - - - - -
01/12:30pm 25.9 NW 18 33 1006.9 - 0.0 - - - - - - -
01/12:25pm 25.9 NW 15 28 1007.0 - 0.0 - - - - - - -
01/12:00pm 25.8 NNW 12 19 1007.5 - 0.0 - - - - - - -
01/11:30am 25.2 NW 10 16 1008.2 - 0.0 - - - - - - -
01/11:00am 26.1 NNW 10 20 1008.1 - 0.0 - - - - - - -
01/10:30am 25.1 NW 12 22 1008.4 - 0.0 - - - - - - -
01/10:00am 25.3 NW 9 19 1008.6 - 0.0 - - - - - - -
01/09:30am 24.9 NW 12 20 1009.0 - 0.0 - - - - - - -
01/09:00am 23.2 NNW 7 11 1009.4 - 0.0 - - - - - - -
01/08:30am 22.1 NNW 6 10 1009.3 - 0.0 - - - - - - -
01/08:00am 21.4 NNW 6 14 1009.1 - 0.0 - - - - - - -
01/07:30am 20.6 N 7 12 1008.6 - 0.0 - - - - - - -
01/07:00am 20.5 N 7 10 1009.1 - 0.0 - - - - - - -
01/06:30am 20.6 NW 5 10 1009.8 - 0.0 - - - - - - -
01/06:00am 19.3 N 6 12 1010.2 - 0.0 - - - - - - -
01/05:30am 19.4 N 10 15 1010.1 - 0.0 - - - - - - -
01/05:00am 18.0 N 5 8 1010.3 - 0.0 - - - - - - -
01/04:30am 18.2 NNW 4 7 1010.7 - 0.0 - - - - - - -
01/04:00am 17.9 N 4 7 1010.4 - 0.0 - - - - - - -
01/03:30am 17.4 N 3 5 1010.9 - 0.0 - - - - - - -
01/03:00am 17.9 NNE 4 6 1011.0 - 0.0 - - - - - - -
01/02:30am 18.1 NNE 4 7 1011.4 - 0.0 - - - - - - -
01/02:00am 17.6 N 4 5 1011.7 - 0.0 - - - - - - -
01/01:30am 18.3 N 3 7 1012.1 - 0.0 - - - - - - -
01/01:00am 19.2 NE 4 8 1012.5 - 0.0 - - - - - - -
01/12:30am 19.3 NNE 2 6 1013.2 - 0.0 - - - - - - -
01/12:00am 19.0 NNE 4 6 1013.6 - 0.0 - - - - - - -
 
Date/Time
EST
Temp

°C
Wind Pressure Rain
since 9am
mm
Weather Cloud Vis
km
Sea
Height
m
Swell
Dir
 
Speed
knots
Gust
knots
hPa Trend Height
m
Period
s
Dir
30/11:30pm 18.2 NNE 3 3 1013.8 - 0.0 - - - - - - -
30/11:00pm 19.1 NNW 6 9 1014.3 - 0.0 - - - - - - -
30/10:30pm 18.9 N 3 5 1014.5 - 0.0 - - - - - - -
30/10:00pm 19.3 N 3 5 1014.6 - 0.0 - - - - - - -
30/09:30pm 20.2 N 3 6 1014.7 - 0.0 - - - - - - -
30/09:00pm 20.6 NNW 4 9 1014.7 - 0.0 - - - - - - -
30/08:30pm 20.4 NW 4 7 1014.8 - 0.0 - - - - - - -
30/08:00pm 19.8 NNW 4 6 1014.7 - 0.0 - - - - - - -
30/07:30pm 20.3 N 6 8 1014.7 - 0.0 - - - - - - -
30/07:00pm 20.1 NNW 3 5 1014.5 - 0.0 - - - - - - -
30/06:30pm 20.5 NNW 3 5 1014.5 - 0.0 - - - - - - -
30/06:00pm 21.2 N 6 9 1014.4 - 0.0 - - - - - - -
30/05:30pm 21.1 N 6 8 1014.3 - 0.0 - - - - - - -
30/05:00pm 21.5 N 6 9 1014.2 - 0.0 - - - - - - -
30/04:30pm 22.1 N 7 10 1014.2 - 0.0 - - - - - - -
30/04:00pm 22.3 NNW 7 10 1014.0 - 0.0 - - - - - - -
30/03:30pm 22.8 NNW 5 9 1014.1 - 0.0 - - - - - - -
30/03:00pm 23.1 N 5 10 1014.2 - 0.0 - - - - - - -
30/02:30pm 23.2 N 3 6 1014.3 - 0.0 - - - - - - -
30/02:00pm 22.8 NNE 4 8 1014.3 - 0.0 - - - - - - -
30/01:30pm 22.6 NNE 6 9 1014.4 - 0.0 - - - - - - -
30/01:00pm 23.6 N 3 5 1014.8 - 0.0 - - - - - - -
30/12:30pm 22.1 NE 4 7 1015.2 - 0.0 - - - - - - -
30/12:00pm 21.9 NE 6 10 1015.9 - 0.0 - - - - - - -
30/11:30am 22.1 NNE 4 6 1016.5 - 0.0 - - - - - - -
30/11:00am 21.6 NNE 5 7 1017.0 - 0.0 - - - - - - -
30/10:30am 21.3 NNE 2 4 1017.3 - 0.0 - - - - - - -
30/10:00am 20.4 NNE 4 6 1017.6 - 0.0 - - - - - - -
30/09:30am 20.2 N 3 4 1017.8 - 0.0 - - - - - - -
30/09:00am 18.8 NNW 4 6 1018.1 - 4.4 - - - - - - -
30/08:30am 18.4 NNW 3 4 1018.2 - 4.4 - - - - - - -
30/08:00am 18.1 N 3 4 1018.3 - 4.4 - - - - - - -
30/07:30am 18.1 N 3 4 1017.8 - 4.4 - - - - - - -
30/07:00am 18.1 N 3 5 1017.5 - 4.4 - - - - - - -
30/06:30am 18.4 N 2 6 1017.4 - 4.2 - - - - - - -
30/06:00am 18.5 N 4 6 1017.0 - 4.2 Recent precip. - - - - - -
30/05:30am 18.3 NNW 2 3 1017.0 - 3.8 - - - - - - -
30/05:00am 18.2 N 3 5 1017.1 - 3.2 - - - - - - -
30/04:30am 18.5 NNW 3 5 1017.1 - 2.6 - - - - - - -
30/04:00am 18.9 N 4 7 1016.7 - 2.2 - - - - - - -
30/03:30am 19.3 NNE 2 5 1016.7 - 2.0 - - - - - - -
30/03:00am 19.2 N 5 8 1016.7 - 1.2 Rain - - - - - -
30/02:30am 19.4 N 5 9 1016.6 - 0.8 - - - - - - -
30/02:00am 19.8 N 6 10 1016.6 - 0.4 - - - - - - -
30/01:30am 20.3 N 6 9 1016.8 - 0.2 - - - - - - -
30/01:00am 20.8 N 6 9 1016.6 - 0.0 - - - - - - -
30/12:30am 21.3 N 7 12 1016.7 - 0.0 - - - - - - -
30/12:00am 21.5 N 7 10 1016.7 - 0.0 - - - - - - -
 
Date/Time
EST
Temp

°C
Wind Pressure Rain
since 9am
mm
Weather Cloud Vis
km
Sea
Height
m
Swell
Dir
 
Speed
knots
Gust
knots
hPa Trend Height
m
Period
s
Dir
29/11:30pm 22.1 N 5 9 1016.9 - 0.0 - - - - - - -
29/11:00pm 22.3 NNW 6 11 1017.2 - 0.0 - - - - - - -
29/10:30pm 21.5 NW 4 6 1017.5 - 0.0 - - - - - - -
29/10:00pm 20.2 NNE 1 4 1017.6 - 0.0 - - - - - - -
29/09:30pm 20.4 N 4 5 1017.5 - 0.0 - - - - - - -
29/09:00pm 20.2 NNW 3 6 1017.5 - 0.0 - - - - - - -
29/08:30pm 20.2 N 4 7 1017.3 - 0.0 - - - - - - -
29/08:00pm 20.2 N 5 8 1017.2 - 0.0 - - - - - - -
29/07:30pm 20.3 N 7 9 1017.0 - 0.0 - - - - - - -
29/07:00pm 20.5 N 8 11 1016.8 - 0.0 - - - - - - -
29/06:30pm 20.6 N 8 12 1016.8 - 0.0 - - - - - - -
29/06:00pm 21.0 N 8 12 1016.7 - 0.0 - - - - - - -
29/05:30pm 21.2 N 8 10 1016.5 - 0.0 - - - - - - -
29/05:00pm 21.8 N 8 12 1016.2 - 0.0 - - - - - - -
29/04:30pm 21.2 NNE 2 5 1016.3 - 0.0 - - - - - - -
29/04:00pm 21.3 N 7 10 1016.2 - 0.0 - - - - - - -
29/03:30pm 21.6 N 2 5 1016.2 - 0.0 - - - - - - -
29/03:00pm 21.8 N 6 8 1016.5 - 0.0 - - - - - - -
29/02:30pm 22.5 N 4 8 1016.5 - 0.0 - - - - - - -
29/02:00pm 21.9 NNE 4 8 1016.7 - 0.0 - - - - - - -
29/01:30pm 22.1 NNE 2 5 1017.1 - 0.0 - - - - - - -
29/01:00pm 22.4 NE 5 9 1017.4 - 0.0 - - - - - - -
29/12:30pm 22.5 NE 11 15 1018.1 - 0.0 - - - - - - -
29/12:00pm 22.2 NE 7 12 1018.6 - 0.0 - - - - - - -
29/11:30am 22.5 NE 5 9 1019.4 - 0.0 - - - - - - -
29/11:00am 21.7 NE 9 13 1019.7 - 0.0 - - - - - - -
29/10:30am 22.3 NE 5 9 1020.2 - 0.0 - - - - - - -
29/10:00am 21.8 NE 5 10 1020.4 - 0.0 - - - - - - -
29/09:30am 21.6 N 2 4 1020.8 - 0.0 - - - - - - -
29/09:00am 21.3 NNW 2 4 1021.3 - 0.0 - - - - - - -
29/08:30am 21.1 NW 2 4 1021.3 - 0.0 - - - - - - -
29/08:00am 19.3 NNW 2 4 1021.5 - 0.0 - - - - - - -
29/07:30am 18.9 N 3 4 1021.3 - 0.0 - - - - - - -
29/07:00am 17.6 N 3 4 1021.0 - 0.0 - - - - - - -
29/06:30am 17.4 N 4 5 1020.6 - 0.0 - - - - - - -
29/06:00am 17.0 N 3 4 1020.5 - 0.0 - - - - - - -
29/05:30am 16.4 N 1 2 1020.6 - 0.0 - - - - - - -
29/05:00am 16.6 NNW 3 3 1020.4 - 0.0 - - - - - - -
29/04:30am 17.1 NNW 1 3 1020.5 - 0.0 - - - - - - -
29/04:00am 18.9 N 5 8 1020.2 - 0.0 - - - - - - -
29/03:30am 19.2 NNW 4 6 1020.1 - 0.0 - - - - - - -
29/03:00am 18.1 NNE 2 5 1020.5 - 0.0 - - - - - - -
29/02:30am 18.3 N 3 4 1020.8 - 0.0 - - - - - - -
29/02:00am 18.8 N 5 7 1020.8 - 0.0 - - - - - - -
29/01:30am 18.3 N 4 6 1021.0 - 0.0 - - - - - - -
29/01:00am 17.8 N 2 4 1021.0 - 0.0 - - - - - - -
29/12:30am 18.0 N 4 5 1021.4 - 0.0 - - - - - - -
29/12:00am 17.2 N 3 5 1021.4 - 0.0 - - - - - - -

Other Formats:

Comma delimited format used in spreadsheet applications
http://www.bom.gov.au/fwo/IDN60701/IDN60701.94938.axf

JavaScript Object Notation format (JSON) in row-major order
http://www.bom.gov.au/fwo/IDN60701/IDN60701.94938.json